KAGC/AGC METAR and TAF weather

Enter ICAO airport designator
Station Type Date Time Source
KAGC METAR 2020/08/11 17:53 UTC NOAA

KAGC 111753Z 24007KT 10SM SCT033 29/21 A2998 RMK AO2 SLP145 60000 T02940206 10294 20211 58007


Station Type Date Time Source
KAGC Decoded METAR 2020/08/11 17:53 UTC NOAA

PITTSBURGH ALLEGHENY CTY., PA, United States (KAGC) 40-21N 079-55W 389M
Aug 11, 2020 - 01:53 PM EDT / 2020.08.11 1753 UTC
Wind: from the WSW (240 degrees) at 8 MPH (7 KT):0
Visibility: 10 mile(s):0
Sky conditions: partly cloudy
Temperature: 84.9 F (29.4 C)
Dew Point: 69.1 F (20.6 C)
Relative Humidity: 59%
Pressure (altimeter): 29.98 in. Hg (1015 hPa)
Pressure tendency: 0.02 inches (0.7 hPa) lower than three hours ago
ob: KAGC 111753Z 24007KT 10SM SCT033 29/21 A2998 RMK AO2 SLP145 60000 T02940206 10294 20211 58007
cycle: 18

Station Type Date Time Source
KAGC TAF 2020/08/11 18:22 UTC NOAA

TAF KAGC 111720Z 1118/1218 23005KT P6SM SCT100
FM112100 26005KT P6SM VCTS BKN060CB
FM120100 VRB03KT P6SM SCT045
FM120800 00000KT 3SM BR SCT040
FM121300 01003KT P6SM SCT100

Example: see airport list